sensor_id;sensor_type;location;lat;lon;timestamp;P1;durP1;ratioP1;P2;durP2;ratioP2
21546;SDS011;41275;51.912;4.388;2022-11-14T00:02:41;16.63;;;10.13;;
21546;SDS011;41275;51.912;4.388;2022-11-14T00:08:02;18.73;;;10.90;;
21546;SDS011;41275;51.912;4.388;2022-11-14T00:13:23;18.87;;;10.80;;
21546;SDS011;41275;51.912;4.388;2022-11-14T00:18:45;18.53;;;10.53;;
21546;SDS011;41275;51.912;4.388;2022-11-14T00:24:06;17.63;;;10.50;;
21546;SDS011;41275;51.912;4.388;2022-11-14T00:29:27;14.97;;;9.57;;
21546;SDS011;41275;51.912;4.388;2022-11-14T00:34:48;14.90;;;9.13;;
21546;SDS011;41275;51.912;4.388;2022-11-14T00:40:09;14.67;;;9.33;;
21546;SDS011;41275;51.912;4.388;2022-11-14T00:45:31;15.52;;;9.30;;
21546;SDS011;41275;51.912;4.388;2022-11-14T00:50:52;14.35;;;8.38;;
21546;SDS011;41275;51.912;4.388;2022-11-14T00:56:13;11.55;;;8.07;;
21546;SDS011;41275;51.912;4.388;2022-11-14T01:01:34;13.75;;;8.02;;
21546;SDS011;41275;51.912;4.388;2022-11-14T01:06:56;13.82;;;8.07;;
21546;SDS011;41275;51.912;4.388;2022-11-14T01:12:17;15.05;;;8.20;;
21546;SDS011;41275;51.912;4.388;2022-11-14T01:17:38;13.23;;;8.43;;
21546;SDS011;41275;51.912;4.388;2022-11-14T01:22:59;12.88;;;8.23;;
21546;SDS011;41275;51.912;4.388;2022-11-14T01:28:21;12.80;;;7.77;;
21546;SDS011;41275;51.912;4.388;2022-11-14T01:33:42;11.90;;;7.70;;
21546;SDS011;41275;51.912;4.388;2022-11-14T01:39:03;11.98;;;7.68;;
21546;SDS011;41275;51.912;4.388;2022-11-14T01:50:08;12.98;;;8.30;;
21546;SDS011;41275;51.912;4.388;2022-11-14T01:55:30;11.35;;;7.82;;
21546;SDS011;41275;51.912;4.388;2022-11-14T02:00:52;11.77;;;7.80;;
21546;SDS011;41275;51.912;4.388;2022-11-14T02:06:14;12.17;;;7.73;;
21546;SDS011;41275;51.912;4.388;2022-11-14T02:11:37;12.53;;;7.67;;
21546;SDS011;41275;51.912;4.388;2022-11-14T02:17:02;11.43;;;7.30;;
21546;SDS011;41275;51.912;4.388;2022-11-14T02:22:23;13.93;;;8.00;;
21546;SDS011;41275;51.912;4.388;2022-11-14T02:27:45;13.20;;;8.03;;
21546;SDS011;41275;51.912;4.388;2022-11-14T02:33:06;13.65;;;8.18;;
21546;SDS011;41275;51.912;4.388;2022-11-14T02:38:27;10.68;;;7.50;;
21546;SDS011;41275;51.912;4.388;2022-11-14T02:43:48;11.90;;;7.75;;
21546;SDS011;41275;51.912;4.388;2022-11-14T02:49:10;12.55;;;7.78;;
21546;SDS011;41275;51.912;4.388;2022-11-14T02:54:31;14.00;;;8.73;;
21546;SDS011;41275;51.912;4.388;2022-11-14T02:59:52;13.75;;;8.07;;
21546;SDS011;41275;51.912;4.388;2022-11-14T03:05:13;12.50;;;8.15;;
21546;SDS011;41275;51.912;4.388;2022-11-14T03:10:35;13.40;;;7.93;;
21546;SDS011;41275;51.912;4.388;2022-11-14T03:15:56;12.63;;;8.00;;
21546;SDS011;41275;51.912;4.388;2022-11-14T03:21:19;13.38;;;8.18;;
21546;SDS011;41275;51.912;4.388;2022-11-14T03:26:42;13.52;;;7.65;;
21546;SDS011;41275;51.912;4.388;2022-11-14T03:32:03;12.27;;;7.68;;
21546;SDS011;41275;51.912;4.388;2022-11-14T03:37:24;12.82;;;7.93;;
21546;SDS011;41275;51.912;4.388;2022-11-14T03:42:45;12.15;;;7.65;;
21546;SDS011;41275;51.912;4.388;2022-11-14T03:48:07;12.17;;;7.70;;
21546;SDS011;41275;51.912;4.388;2022-11-14T03:53:28;12.43;;;8.00;;
21546;SDS011;41275;51.912;4.388;2022-11-14T03:58:49;13.83;;;7.77;;
21546;SDS011;41275;51.912;4.388;2022-11-14T04:04:11;14.20;;;7.95;;
21546;SDS011;41275;51.912;4.388;2022-11-14T04:09:32;13.37;;;7.87;;
21546;SDS011;41275;51.912;4.388;2022-11-14T04:14:53;14.33;;;8.83;;
21546;SDS011;41275;51.912;4.388;2022-11-14T04:20:15;14.80;;;8.10;;
21546;SDS011;41275;51.912;4.388;2022-11-14T04:25:36;15.18;;;8.20;;
21546;SDS011;41275;51.912;4.388;2022-11-14T04:30:57;13.95;;;8.23;;
21546;SDS011;41275;51.912;4.388;2022-11-14T04:36:20;18.20;;;8.93;;
21546;SDS011;41275;51.912;4.388;2022-11-14T04:41:41;14.90;;;8.67;;
21546;SDS011;41275;51.912;4.388;2022-11-14T04:47:02;13.70;;;8.00;;
21546;SDS011;41275;51.912;4.388;2022-11-14T04:52:23;16.23;;;8.73;;
21546;SDS011;41275;51.912;4.388;2022-11-14T04:57:44;14.98;;;9.00;;
21546;SDS011;41275;51.912;4.388;2022-11-14T05:03:06;16.15;;;9.13;;
21546;SDS011;41275;51.912;4.388;2022-11-14T05:08:28;16.20;;;8.90;;
21546;SDS011;41275;51.912;4.388;2022-11-14T05:13:49;15.35;;;9.00;;
21546;SDS011;41275;51.912;4.388;2022-11-14T05:19:10;18.17;;;8.68;;
21546;SDS011;41275;51.912;4.388;2022-11-14T05:24:32;16.73;;;9.17;;
21546;SDS011;41275;51.912;4.388;2022-11-14T05:29:53;14.77;;;9.23;;
21546;SDS011;41275;51.912;4.388;2022-11-14T05:35:17;17.38;;;9.48;;
21546;SDS011;41275;51.912;4.388;2022-11-14T05:40:39;14.82;;;9.00;;
21546;SDS011;41275;51.912;4.388;2022-11-14T05:46:00;15.00;;;8.77;;
21546;SDS011;41275;51.912;4.388;2022-11-14T05:51:22;17.38;;;9.90;;
21546;SDS011;41275;51.912;4.388;2022-11-14T05:56:44;16.23;;;9.00;;
21546;SDS011;41275;51.912;4.388;2022-11-14T06:02:05;17.73;;;9.50;;
21546;SDS011;41275;51.912;4.388;2022-11-14T06:07:26;17.27;;;8.98;;
21546;SDS011;41275;51.912;4.388;2022-11-14T06:12:47;15.53;;;9.13;;
21546;SDS011;41275;51.912;4.388;2022-11-14T06:18:08;18.20;;;9.13;;
21546;SDS011;41275;51.912;4.388;2022-11-14T06:23:30;16.27;;;9.48;;
21546;SDS011;41275;51.912;4.388;2022-11-14T06:28:52;17.00;;;9.70;;
21546;SDS011;41275;51.912;4.388;2022-11-14T06:34:13;17.58;;;9.80;;
21546;SDS011;41275;51.912;4.388;2022-11-14T06:39:34;16.02;;;9.38;;
21546;SDS011;41275;51.912;4.388;2022-11-14T06:44:56;18.73;;;10.30;;
21546;SDS011;41275;51.912;4.388;2022-11-14T06:50:17;17.33;;;10.87;;
21546;SDS011;41275;51.912;4.388;2022-11-14T06:55:38;18.40;;;10.50;;
21546;SDS011;41275;51.912;4.388;2022-11-14T07:01:03;18.88;;;10.73;;
21546;SDS011;41275;51.912;4.388;2022-11-14T07:06:28;18.75;;;10.68;;
21546;SDS011;41275;51.912;4.388;2022-11-14T07:11:50;19.23;;;11.30;;
21546;SDS011;41275;51.912;4.388;2022-11-14T07:17:11;20.57;;;10.60;;
21546;SDS011;41275;51.912;4.388;2022-11-14T07:22:32;21.87;;;10.70;;
21546;SDS011;41275;51.912;4.388;2022-11-14T07:27:55;17.20;;;10.27;;
21546;SDS011;41275;51.912;4.388;2022-11-14T07:33:17;19.63;;;11.27;;
21546;SDS011;41275;51.912;4.388;2022-11-14T07:38:38;16.67;;;9.93;;
21546;SDS011;41275;51.912;4.388;2022-11-14T07:43:59;17.27;;;8.97;;
21546;SDS011;41275;51.912;4.388;2022-11-14T07:49:21;17.80;;;9.53;;
21546;SDS011;41275;51.912;4.388;2022-11-14T07:54:42;18.00;;;9.85;;
21546;SDS011;41275;51.912;4.388;2022-11-14T08:00:03;17.38;;;9.27;;
21546;SDS011;41275;51.912;4.388;2022-11-14T08:05:24;18.02;;;9.50;;
21546;SDS011;41275;51.912;4.388;2022-11-14T08:10:46;15.90;;;8.40;;
21546;SDS011;41275;51.912;4.388;2022-11-14T08:16:07;16.20;;;7.60;;
21546;SDS011;41275;51.912;4.388;2022-11-14T08:27:19;12.90;;;7.45;;
21546;SDS011;41275;51.912;4.388;2022-11-14T08:32:49;16.52;;;7.78;;
21546;SDS011;41275;51.912;4.388;2022-11-14T08:38:10;12.63;;;8.10;;
21546;SDS011;41275;51.912;4.388;2022-11-14T08:44:06;18.98;;;8.80;;
21546;SDS011;41275;51.912;4.388;2022-11-14T08:49:30;12.30;;;7.32;;
21546;SDS011;41275;51.912;4.388;2022-11-14T08:54:53;16.00;;;8.10;;
21546;SDS011;41275;51.912;4.388;2022-11-14T09:00:19;16.33;;;7.67;;
21546;SDS011;41275;51.912;4.388;2022-11-14T09:05:41;16.48;;;8.25;;
21546;SDS011;41275;51.912;4.388;2022-11-14T09:11:02;13.65;;;8.45;;
21546;SDS011;41275;51.912;4.388;2022-11-14T09:16:26;15.67;;;7.27;;
21546;SDS011;41275;51.912;4.388;2022-11-14T09:21:47;22.03;;;16.23;;
21546;SDS011;41275;51.912;4.388;2022-11-14T09:27:08;18.57;;;11.47;;
21546;SDS011;41275;51.912;4.388;2022-11-14T09:32:29;16.63;;;9.67;;
21546;SDS011;41275;51.912;4.388;2022-11-14T09:37:57;13.73;;;8.70;;
21546;SDS011;41275;51.912;4.388;2022-11-14T09:43:30;12.13;;;7.90;;
21546;SDS011;41275;51.912;4.388;2022-11-14T09:49:08;15.10;;;8.83;;
21546;SDS011;41275;51.912;4.388;2022-11-14T09:54:45;15.30;;;8.63;;
21546;SDS011;41275;51.912;4.388;2022-11-14T10:00:28;15.13;;;10.10;;
21546;SDS011;41275;51.912;4.388;2022-11-14T10:06:19;19.52;;;10.75;;
21546;SDS011;41275;51.912;4.388;2022-11-14T10:11:46;20.10;;;11.45;;
21546;SDS011;41275;51.912;4.388;2022-11-14T10:17:19;17.20;;;9.80;;
21546;SDS011;41275;51.912;4.388;2022-11-14T10:39:58;33.70;;;15.18;;
21546;SDS011;41275;51.912;4.388;2022-11-14T10:45:42;29.40;;;13.87;;
21546;SDS011;41275;51.912;4.388;2022-11-14T10:57:00;22.80;;;12.57;;
21546;SDS011;41275;51.912;4.388;2022-11-14T11:02:21;29.05;;;13.13;;
21546;SDS011;41275;51.912;4.388;2022-11-14T11:07:43;28.80;;;14.13;;
21546;SDS011;41275;51.912;4.388;2022-11-14T11:13:32;24.75;;;12.05;;
21546;SDS011;41275;51.912;4.388;2022-11-14T11:24:54;19.03;;;10.90;;
21546;SDS011;41275;51.912;4.388;2022-11-14T11:30:17;23.20;;;12.00;;
21546;SDS011;41275;51.912;4.388;2022-11-14T11:35:40;17.73;;;11.65;;
21546;SDS011;41275;51.912;4.388;2022-11-14T11:41:12;18.77;;;11.10;;
21546;SDS011;41275;51.912;4.388;2022-11-14T11:46:41;18.20;;;11.30;;
21546;SDS011;41275;51.912;4.388;2022-11-14T11:52:19;20.60;;;11.57;;
21546;SDS011;41275;51.912;4.388;2022-11-14T11:58:11;19.55;;;11.77;;
21546;SDS011;41275;51.912;4.388;2022-11-14T12:03:33;20.87;;;11.70;;
21546;SDS011;41275;51.912;4.388;2022-11-14T12:09:09;17.75;;;10.68;;
21546;SDS011;41275;51.912;4.388;2022-11-14T12:32:01;15.30;;;10.03;;
21546;SDS011;41275;51.912;4.388;2022-11-14T12:37:30;15.35;;;9.93;;
21546;SDS011;41275;51.912;4.388;2022-11-14T12:42:58;18.45;;;9.75;;
21546;SDS011;41275;51.912;4.388;2022-11-14T12:53:45;14.05;;;9.65;;
21546;SDS011;41275;51.912;4.388;2022-11-14T13:05:03;16.40;;;10.27;;
21546;SDS011;41275;51.912;4.388;2022-11-14T13:10:37;16.85;;;9.70;;
21546;SDS011;41275;51.912;4.388;2022-11-14T13:16:00;14.55;;;9.32;;
21546;SDS011;41275;51.912;4.388;2022-11-14T13:27:32;22.40;;;14.15;;
21546;SDS011;41275;51.912;4.388;2022-11-14T13:32:54;15.02;;;9.40;;
21546;SDS011;41275;51.912;4.388;2022-11-14T13:50:01;16.35;;;10.00;;
21546;SDS011;41275;51.912;4.388;2022-11-14T13:55:54;16.45;;;9.85;;
21546;SDS011;41275;51.912;4.388;2022-11-14T14:12:46;15.18;;;9.02;;
21546;SDS011;41275;51.912;4.388;2022-11-14T14:18:24;15.45;;;9.60;;
21546;SDS011;41275;51.912;4.388;2022-11-14T14:24:09;15.63;;;9.90;;
21546;SDS011;41275;51.912;4.388;2022-11-14T14:35:19;14.27;;;9.30;;
21546;SDS011;41275;51.912;4.388;2022-11-14T14:40:47;16.92;;;10.23;;
21546;SDS011;41275;51.912;4.388;2022-11-14T14:46:08;17.85;;;10.73;;
21546;SDS011;41275;51.912;4.388;2022-11-14T14:51:31;18.45;;;9.95;;
21546;SDS011;41275;51.912;4.388;2022-11-14T14:56:55;17.27;;;10.50;;
21546;SDS011;41275;51.912;4.388;2022-11-14T15:02:20;16.38;;;10.23;;
21546;SDS011;41275;51.912;4.388;2022-11-14T15:07:43;18.27;;;10.93;;
21546;SDS011;41275;51.912;4.388;2022-11-14T15:13:07;16.35;;;10.85;;
21546;SDS011;41275;51.912;4.388;2022-11-14T15:18:31;17.60;;;10.18;;
21546;SDS011;41275;51.912;4.388;2022-11-14T15:24:00;16.67;;;9.70;;
21546;SDS011;41275;51.912;4.388;2022-11-14T15:29:35;19.65;;;10.73;;
21546;SDS011;41275;51.912;4.388;2022-11-14T15:40:39;21.13;;;12.45;;
21546;SDS011;41275;51.912;4.388;2022-11-14T15:46:01;21.35;;;12.15;;
21546;SDS011;41275;51.912;4.388;2022-11-14T15:57:11;19.47;;;11.67;;
21546;SDS011;41275;51.912;4.388;2022-11-14T16:02:33;20.35;;;12.90;;
21546;SDS011;41275;51.912;4.388;2022-11-14T16:08:03;20.33;;;13.05;;
21546;SDS011;41275;51.912;4.388;2022-11-14T16:13:24;21.20;;;12.10;;
21546;SDS011;41275;51.912;4.388;2022-11-14T16:18:46;17.63;;;11.57;;
21546;SDS011;41275;51.912;4.388;2022-11-14T16:24:20;19.92;;;12.98;;
21546;SDS011;41275;51.912;4.388;2022-11-14T16:29:42;21.90;;;12.10;;
21546;SDS011;41275;51.912;4.388;2022-11-14T16:35:05;17.45;;;10.80;;
21546;SDS011;41275;51.912;4.388;2022-11-14T16:40:33;19.88;;;12.00;;
21546;SDS011;41275;51.912;4.388;2022-11-14T16:45:54;19.25;;;11.13;;
21546;SDS011;41275;51.912;4.388;2022-11-14T16:51:16;17.38;;;10.48;;
21546;SDS011;41275;51.912;4.388;2022-11-14T16:56:37;15.80;;;9.45;;
21546;SDS011;41275;51.912;4.388;2022-11-14T17:01:58;15.77;;;8.67;;
21546;SDS011;41275;51.912;4.388;2022-11-14T17:07:20;16.23;;;9.60;;
21546;SDS011;41275;51.912;4.388;2022-11-14T17:12:41;19.80;;;10.20;;
21546;SDS011;41275;51.912;4.388;2022-11-14T17:18:02;19.17;;;10.97;;
21546;SDS011;41275;51.912;4.388;2022-11-14T17:23:24;15.10;;;9.38;;
21546;SDS011;41275;51.912;4.388;2022-11-14T17:28:45;18.38;;;9.68;;
21546;SDS011;41275;51.912;4.388;2022-11-14T17:34:07;18.73;;;10.18;;
21546;SDS011;41275;51.912;4.388;2022-11-14T17:39:29;21.00;;;12.53;;
21546;SDS011;41275;51.912;4.388;2022-11-14T17:44:50;20.87;;;10.60;;
21546;SDS011;41275;51.912;4.388;2022-11-14T17:50:12;17.70;;;10.38;;
21546;SDS011;41275;51.912;4.388;2022-11-14T17:55:34;19.13;;;11.13;;
21546;SDS011;41275;51.912;4.388;2022-11-14T18:00:55;18.90;;;11.13;;
21546;SDS011;41275;51.912;4.388;2022-11-14T18:06:19;20.73;;;11.15;;
21546;SDS011;41275;51.912;4.388;2022-11-14T18:11:41;21.13;;;11.83;;
21546;SDS011;41275;51.912;4.388;2022-11-14T18:17:02;21.80;;;12.73;;
21546;SDS011;41275;51.912;4.388;2022-11-14T18:22:23;22.90;;;13.43;;
21546;SDS011;41275;51.912;4.388;2022-11-14T18:27:44;26.53;;;14.67;;
21546;SDS011;41275;51.912;4.388;2022-11-14T18:33:05;25.77;;;15.50;;
21546;SDS011;41275;51.912;4.388;2022-11-14T18:38:29;27.17;;;16.27;;
21546;SDS011;41275;51.912;4.388;2022-11-14T18:43:53;30.80;;;15.43;;
21546;SDS011;41275;51.912;4.388;2022-11-14T18:49:15;30.77;;;16.70;;
21546;SDS011;41275;51.912;4.388;2022-11-14T18:54:36;33.57;;;17.73;;
21546;SDS011;41275;51.912;4.388;2022-11-14T18:59:57;26.40;;;15.07;;
21546;SDS011;41275;51.912;4.388;2022-11-14T19:05:18;28.50;;;16.10;;
21546;SDS011;41275;51.912;4.388;2022-11-14T19:10:40;27.77;;;15.63;;
21546;SDS011;41275;51.912;4.388;2022-11-14T19:16:04;31.47;;;17.57;;
21546;SDS011;41275;51.912;4.388;2022-11-14T19:21:26;37.25;;;19.23;;
21546;SDS011;41275;51.912;4.388;2022-11-14T19:26:48;44.08;;;22.13;;
21546;SDS011;41275;51.912;4.388;2022-11-14T19:32:12;42.72;;;23.45;;
21546;SDS011;41275;51.912;4.388;2022-11-14T19:37:33;45.22;;;23.58;;
21546;SDS011;41275;51.912;4.388;2022-11-14T19:42:54;47.25;;;23.67;;
21546;SDS011;41275;51.912;4.388;2022-11-14T19:48:20;43.95;;;22.20;;
21546;SDS011;41275;51.912;4.388;2022-11-14T19:53:41;43.00;;;21.97;;
21546;SDS011;41275;51.912;4.388;2022-11-14T19:59:06;41.63;;;21.75;;
21546;SDS011;41275;51.912;4.388;2022-11-14T20:04:27;42.43;;;21.87;;
21546;SDS011;41275;51.912;4.388;2022-11-14T20:09:48;41.70;;;21.93;;
21546;SDS011;41275;51.912;4.388;2022-11-14T20:15:10;40.67;;;21.00;;
21546;SDS011;41275;51.912;4.388;2022-11-14T20:20:32;39.77;;;20.57;;
21546;SDS011;41275;51.912;4.388;2022-11-14T20:25:53;39.38;;;21.45;;
21546;SDS011;41275;51.912;4.388;2022-11-14T20:31:15;44.83;;;21.85;;
21546;SDS011;41275;51.912;4.388;2022-11-14T20:36:41;46.73;;;24.93;;
21546;SDS011;41275;51.912;4.388;2022-11-14T20:42:02;39.53;;;19.93;;
21546;SDS011;41275;51.912;4.388;2022-11-14T20:47:23;37.70;;;20.27;;
21546;SDS011;41275;51.912;4.388;2022-11-14T20:52:45;34.53;;;18.77;;
21546;SDS011;41275;51.912;4.388;2022-11-14T20:58:07;33.70;;;18.57;;
21546;SDS011;41275;51.912;4.388;2022-11-14T21:03:30;35.50;;;18.17;;
21546;SDS011;41275;51.912;4.388;2022-11-14T21:08:52;34.47;;;18.88;;
21546;SDS011;41275;51.912;4.388;2022-11-14T21:14:13;34.42;;;17.25;;
21546;SDS011;41275;51.912;4.388;2022-11-14T21:19:34;35.40;;;16.98;;
21546;SDS011;41275;51.912;4.388;2022-11-14T21:24:55;32.55;;;16.05;;
21546;SDS011;41275;51.912;4.388;2022-11-14T21:30:17;30.08;;;15.15;;
21546;SDS011;41275;51.912;4.388;2022-11-14T21:35:40;35.08;;;15.95;;
21546;SDS011;41275;51.912;4.388;2022-11-14T21:41:04;34.72;;;15.95;;
21546;SDS011;41275;51.912;4.388;2022-11-14T21:46:26;32.63;;;16.25;;
21546;SDS011;41275;51.912;4.388;2022-11-14T21:51:48;39.60;;;17.20;;
21546;SDS011;41275;51.912;4.388;2022-11-14T21:57:09;37.60;;;16.30;;
21546;SDS011;41275;51.912;4.388;2022-11-14T22:03:42;38.20;;;16.92;;
21546;SDS011;41275;51.912;4.388;2022-11-14T22:09:22;48.50;;;19.15;;
21546;SDS011;41275;51.912;4.388;2022-11-14T22:14:43;47.30;;;20.20;;
21546;SDS011;41275;51.912;4.388;2022-11-14T22:20:04;45.65;;;20.90;;
21546;SDS011;41275;51.912;4.388;2022-11-14T22:25:26;46.20;;;19.60;;
21546;SDS011;41275;51.912;4.388;2022-11-14T22:30:47;47.15;;;19.60;;
21546;SDS011;41275;51.912;4.388;2022-11-14T22:36:09;45.88;;;20.52;;
21546;SDS011;41275;51.912;4.388;2022-11-14T22:41:32;50.67;;;20.37;;
21546;SDS011;41275;51.912;4.388;2022-11-14T22:46:53;47.80;;;20.60;;
21546;SDS011;41275;51.912;4.388;2022-11-14T22:52:15;46.47;;;20.47;;
21546;SDS011;41275;51.912;4.388;2022-11-14T22:57:36;46.03;;;19.20;;
21546;SDS011;41275;51.912;4.388;2022-11-14T23:02:57;50.20;;;20.60;;
21546;SDS011;41275;51.912;4.388;2022-11-14T23:08:19;52.63;;;21.00;;
21546;SDS011;41275;51.912;4.388;2022-11-14T23:13:41;50.22;;;20.45;;
21546;SDS011;41275;51.912;4.388;2022-11-14T23:19:04;56.40;;;19.60;;
21546;SDS011;41275;51.912;4.388;2022-11-14T23:24:25;55.03;;;20.70;;
21546;SDS011;41275;51.912;4.388;2022-11-14T23:29:46;56.73;;;20.60;;
21546;SDS011;41275;51.912;4.388;2022-11-14T23:35:07;56.27;;;21.27;;
21546;SDS011;41275;51.912;4.388;2022-11-14T23:40:29;55.00;;;20.97;;
21546;SDS011;41275;51.912;4.388;2022-11-14T23:45:50;51.27;;;20.57;;
21546;SDS011;41275;51.912;4.388;2022-11-14T23:51:11;53.73;;;20.50;;
21546;SDS011;41275;51.912;4.388;2022-11-14T23:56:33;57.28;;;21.83;;
